createdAt,value
2022-10-01T00:02:01.352Z,6.89
2022-10-01T00:04:28.149Z,7.21
2022-10-01T00:06:54.706Z,7.37
2022-10-01T00:09:21.227Z,7.61
2022-10-01T00:11:47.758Z,7.79
2022-10-01T00:14:14.310Z,7.51
2022-10-01T00:16:40.903Z,8.03
2022-10-01T00:19:07.456Z,8.25
2022-10-01T00:21:34.385Z,8.15
2022-10-01T00:24:04.522Z,8.00
2022-10-01T00:26:32.897Z,8.31
2022-10-01T00:29:01.631Z,7.74
2022-10-01T00:31:29.012Z,7.77
2022-10-01T00:33:58.298Z,7.18
2022-10-01T00:36:25.692Z,7.11
2022-10-01T00:38:52.341Z,6.87
2022-10-01T00:41:19.094Z,6.60
2022-10-01T00:43:47.447Z,6.58
2022-10-01T00:46:21.666Z,6.19
2022-10-01T00:49:01.103Z,6.34
2022-10-01T00:51:32.435Z,6.10
2022-10-01T00:54:06.661Z,5.67
2022-10-01T00:56:34.223Z,5.57
2022-10-01T00:59:01.727Z,4.90
2022-10-01T01:01:28.830Z,4.87
2022-10-01T01:03:56.594Z,4.56
2022-10-01T01:06:23.074Z,4.56
2022-10-01T01:08:55.028Z,4.31
2022-10-01T01:11:24.491Z,4.41
2022-10-01T01:14:02.698Z,4.16
2022-10-01T01:16:39.163Z,3.99
2022-10-01T01:19:23.828Z,3.92
2022-10-01T01:21:55.601Z,4.04
2022-10-01T01:24:22.043Z,3.98
2022-10-01T01:26:49.293Z,4.19
2022-10-01T01:29:21.970Z,3.91
2022-10-01T01:31:49.415Z,4.07
2022-10-01T01:34:23.204Z,3.96
2022-10-01T01:36:54.373Z,3.75
2022-10-01T01:39:24.260Z,4.01
2022-10-01T01:41:55.213Z,3.61
2022-10-01T01:44:25.571Z,3.49
2022-10-01T01:46:56.563Z,3.53
2022-10-01T01:49:23.752Z,3.30
2022-10-01T01:51:53.351Z,3.26
2022-10-01T01:54:20.364Z,3.28
2022-10-01T01:56:49.688Z,3.29
2022-10-01T01:59:18.648Z,3.20
2022-10-01T02:01:45.893Z,3.26
2022-10-01T02:04:18.236Z,3.29
2022-10-01T02:07:03.858Z,3.20
2022-10-01T02:09:39.654Z,2.88
2022-10-01T02:12:17.633Z,2.90
2022-10-01T02:14:57.976Z,2.78
2022-10-01T02:17:24.940Z,2.69
2022-10-01T02:20:02.012Z,2.90
2022-10-01T02:22:40.257Z,2.61
2022-10-01T02:25:09.306Z,2.70
2022-10-01T02:27:47.547Z,2.45
2022-10-01T02:30:15.373Z,2.25
2022-10-01T02:32:44.578Z,2.35
2022-10-01T02:35:14.304Z,2.09
2022-10-01T02:37:44.267Z,2.23
2022-10-01T02:40:16.059Z,2.25
2022-10-01T02:42:47.648Z,2.32
2022-10-01T02:45:17.111Z,2.30
2022-10-01T02:47:51.526Z,2.26
2022-10-01T02:50:18.096Z,2.39
2022-10-01T02:52:59.458Z,2.53
2022-10-01T02:55:29.191Z,2.71
2022-10-01T02:57:56.122Z,2.87
2022-10-01T03:00:22.579Z,2.69
2022-10-01T03:02:49.873Z,2.89
2022-10-01T03:05:17.217Z,2.86
2022-10-01T03:07:44.417Z,2.99
2022-10-01T03:10:11.745Z,3.12
2022-10-01T03:12:43.754Z,3.17
2022-10-01T03:15:10.363Z,3.12
2022-10-01T03:17:38.010Z,3.21
2022-10-01T03:20:05.897Z,3.39
2022-10-01T03:22:33.387Z,3.42
2022-10-01T03:25:00.497Z,3.33
2022-10-01T03:27:27.027Z,3.40
2022-10-01T03:29:53.479Z,3.49
2022-10-01T03:32:20.437Z,3.31
2022-10-01T03:34:46.877Z,3.66
2022-10-01T03:37:13.482Z,3.37
2022-10-01T03:39:40.195Z,3.19
2022-10-01T03:42:07.137Z,3.27
2022-10-01T03:44:34.025Z,3.31
2022-10-01T03:47:00.537Z,3.49
2022-10-01T03:49:27.875Z,3.22
2022-10-01T03:51:54.439Z,3.38
2022-10-01T03:54:21.018Z,3.21
2022-10-01T03:56:48.854Z,3.26
2022-10-01T03:59:15.356Z,3.07
2022-10-01T04:01:41.961Z,2.99
2022-10-01T04:04:08.446Z,2.92
2022-10-01T04:06:34.940Z,2.92
2022-10-01T04:09:01.472Z,2.89
2022-10-01T04:11:27.979Z,2.78
2022-10-01T04:13:54.643Z,2.84
2022-10-01T04:16:21.258Z,2.87
2022-10-01T04:18:47.776Z,2.54
2022-10-01T04:21:15.573Z,2.64
2022-10-01T04:23:42.224Z,2.29
2022-10-01T04:26:08.748Z,2.36
2022-10-01T04:28:35.265Z,2.31
2022-10-01T04:31:20.526Z,2.67
2022-10-01T04:33:47.091Z,2.61
2022-10-01T04:36:13.552Z,2.45
2022-10-01T04:38:40.042Z,2.35
2022-10-01T04:41:06.649Z,2.25
2022-10-01T04:43:33.152Z,2.20
2022-10-01T04:45:59.613Z,2.16
2022-10-01T04:48:26.123Z,2.07
2022-10-01T04:50:52.649Z,2.14
2022-10-01T04:53:19.185Z,2.17
2022-10-01T04:55:46.668Z,2.22
2022-10-01T04:58:13.602Z,2.07
2022-10-01T05:00:40.271Z,2.00
2022-10-01T05:03:06.849Z,2.16
2022-10-01T05:05:35.054Z,2.00
2022-10-01T05:08:02.475Z,1.85
2022-10-01T05:10:29.427Z,1.96
2022-10-01T05:12:58.030Z,2.02
2022-10-01T05:15:24.555Z,2.04
2022-10-01T05:17:51.067Z,2.01
2022-10-01T05:20:19.570Z,2.00
2022-10-01T05:22:47.361Z,2.02
2022-10-01T05:25:13.987Z,1.97
2022-10-01T05:27:41.035Z,1.95
2022-10-01T05:30:09.502Z,2.10
2022-10-01T05:32:36.218Z,1.94
2022-10-01T05:35:03.374Z,1.98
2022-10-01T05:37:29.845Z,2.07
2022-10-01T05:39:56.335Z,1.97
2022-10-01T05:42:22.968Z,2.24
2022-10-01T05:44:50.060Z,2.29
2022-10-01T05:47:17.170Z,2.20
2022-10-01T05:49:44.457Z,2.19
2022-10-01T05:52:12.142Z,2.05
2022-10-01T05:54:38.657Z,1.86
2022-10-01T05:57:06.146Z,2.07
2022-10-01T05:59:32.983Z,2.26
2022-10-01T06:01:59.672Z,2.09
2022-10-01T06:04:26.219Z,2.10
2022-10-01T06:06:56.224Z,2.04
2022-10-01T06:09:23.159Z,2.09
2022-10-01T06:11:50.103Z,2.07
2022-10-01T06:14:17.348Z,1.99
2022-10-01T06:16:43.920Z,2.21
2022-10-01T06:19:10.524Z,2.03
2022-10-01T06:21:37.574Z,1.88
2022-10-01T06:24:04.435Z,1.99
2022-10-01T06:26:31.195Z,2.10
2022-10-01T06:28:57.901Z,2.27
2022-10-01T06:31:25.102Z,2.03
2022-10-01T06:33:51.804Z,2.11
2022-10-01T06:36:18.362Z,2.18
2022-10-01T06:38:47.704Z,1.93
2022-10-01T06:41:14.142Z,2.24
2022-10-01T06:43:40.709Z,2.48
2022-10-01T06:46:07.435Z,2.31
2022-10-01T06:48:36.376Z,2.33
2022-10-01T06:51:03.262Z,2.66
2022-10-01T06:53:29.805Z,2.68
2022-10-01T06:55:56.659Z,2.50
2022-10-01T06:58:27.582Z,2.43
2022-10-01T07:00:58.664Z,2.69
2022-10-01T07:03:25.791Z,2.70
2022-10-01T07:05:52.295Z,2.99
2022-10-01T07:08:18.922Z,3.08
2022-10-01T07:10:45.715Z,3.13
2022-10-01T07:13:17.624Z,3.10
2022-10-01T07:15:45.087Z,2.90
2022-10-01T07:18:12.344Z,2.81
2022-10-01T07:20:40.415Z,3.01
2022-10-01T07:23:08.675Z,2.96
2022-10-01T07:25:35.244Z,3.03
2022-10-01T07:28:04.429Z,2.77
2022-10-01T07:30:32.023Z,2.63
2022-10-01T07:32:59.161Z,2.98
2022-10-01T07:35:25.903Z,2.85
2022-10-01T07:37:55.367Z,3.16
2022-10-01T07:40:22.472Z,2.94
2022-10-01T07:42:54.615Z,2.99
2022-10-01T07:45:22.243Z,2.89
2022-10-01T07:48:01.874Z,3.07
2022-10-01T07:50:30.542Z,2.83
2022-10-01T07:52:58.328Z,2.92
2022-10-01T07:55:30.542Z,2.86
2022-10-01T07:57:58.193Z,3.33
2022-10-01T08:00:26.838Z,3.31
2022-10-01T08:02:56.148Z,3.61
2022-10-01T08:05:27.789Z,3.10
2022-10-01T08:07:58.210Z,3.67
2022-10-01T08:10:24.814Z,4.23
2022-10-01T08:12:51.303Z,4.10
2022-10-01T08:15:18.641Z,5.80
2022-10-01T08:17:45.403Z,5.97
2022-10-01T08:20:12.938Z,3.95
2022-10-01T08:22:42.080Z,8.22
2022-10-01T08:25:09.521Z,4.44
2022-10-01T08:27:36.743Z,4.25
2022-10-01T08:30:03.596Z,4.34
2022-10-01T08:32:31.454Z,5.00
2022-10-01T08:34:59.934Z,5.09
2022-10-01T08:37:27.203Z,3.75
2022-10-01T08:39:54.559Z,5.15
2022-10-01T08:42:39.620Z,4.30
2022-10-01T08:45:12.695Z,3.61
2022-10-01T08:47:42.314Z,4.32
2022-10-01T08:50:18.117Z,3.78
2022-10-01T08:52:59.237Z,4.48
2022-10-01T08:55:28.169Z,4.30
2022-10-01T08:57:59.194Z,4.74
2022-10-01T09:00:27.387Z,4.47
2022-10-01T09:03:04.619Z,4.65
2022-10-01T09:05:41.625Z,4.34
2022-10-01T09:08:43.429Z,3.79
2022-10-01T09:11:25.262Z,4.11
2022-10-01T09:13:58.234Z,4.39
2022-10-01T09:16:30.900Z,4.35
2022-10-01T09:19:06.459Z,4.35
2022-10-01T09:21:53.831Z,4.20
2022-10-01T09:24:32.710Z,4.71
2022-10-01T09:27:00.826Z,4.36
2022-10-01T09:29:33.678Z,4.43
2022-10-01T09:32:04.025Z,4.24
2022-10-01T09:34:35.250Z,4.54
2022-10-01T09:37:14.646Z,3.84
2022-10-01T09:40:00.094Z,4.20
2022-10-01T09:42:29.153Z,4.43
2022-10-01T09:44:56.937Z,4.04
2022-10-01T09:47:25.731Z,4.50
2022-10-01T09:49:52.264Z,4.33
2022-10-01T09:52:28.714Z,3.84
2022-10-01T09:55:02.708Z,4.17
2022-10-01T09:57:32.218Z,3.69
2022-10-01T10:00:17.983Z,3.79
2022-10-01T10:02:49.181Z,5.06
2022-10-01T10:05:18.356Z,3.75
2022-10-01T10:07:46.928Z,4.05
2022-10-01T10:10:25.691Z,3.66
2022-10-01T10:13:05.012Z,3.93
2022-10-01T10:15:33.262Z,4.04
2022-10-01T10:18:23.041Z,4.24
2022-10-01T10:20:52.436Z,4.24
2022-10-01T10:23:20.704Z,3.87
2022-10-01T10:26:00.787Z,4.00
2022-10-01T10:28:28.683Z,3.87
2022-10-01T10:30:57.352Z,3.86
2022-10-01T10:33:26.354Z,4.58
2022-10-01T10:36:00.824Z,3.74
2022-10-01T10:38:31.688Z,4.20
2022-10-01T10:40:58.545Z,3.95
2022-10-01T10:43:29.126Z,3.99
2022-10-01T10:45:58.111Z,4.39
2022-10-01T10:48:29.281Z,3.99
2022-10-01T10:51:01.678Z,3.86
2022-10-01T10:53:31.855Z,4.12
2022-10-01T10:56:01.135Z,3.70
2022-10-01T10:58:29.865Z,3.78
2022-10-01T11:00:59.533Z,3.65
2022-10-01T11:03:32.324Z,4.12
2022-10-01T11:06:04.185Z,3.68
2022-10-01T11:08:31.643Z,3.46
2022-10-01T11:11:17.168Z,3.63
2022-10-01T11:13:53.092Z,3.46
2022-10-01T11:16:48.914Z,4.04
2022-10-01T11:19:18.218Z,4.34
2022-10-01T11:22:03.675Z,3.97
2022-10-01T11:24:32.976Z,3.70
2022-10-01T11:27:05.321Z,3.63
2022-10-01T11:29:31.858Z,4.25
2022-10-01T11:32:19.350Z,4.34
2022-10-01T11:35:05.130Z,3.88
2022-10-01T11:37:31.524Z,3.65
2022-10-01T11:40:03.336Z,4.13
2022-10-01T11:42:35.605Z,3.93
2022-10-01T11:45:07.122Z,4.04
2022-10-01T11:47:41.979Z,4.02
2022-10-01T11:50:17.114Z,4.20
2022-10-01T11:52:52.814Z,3.88
2022-10-01T11:55:38.095Z,3.47
2022-10-01T11:58:23.094Z,3.53
2022-10-01T12:01:08.331Z,4.30
2022-10-01T12:03:40.089Z,3.89
2022-10-01T12:06:11.004Z,4.01
2022-10-01T12:08:42.142Z,4.64
2022-10-01T12:11:20.431Z,4.20
2022-10-01T12:14:00.027Z,4.33
2022-10-01T12:16:45.422Z,4.10
2022-10-01T12:19:12.034Z,4.14
2022-10-01T12:21:43.712Z,3.70
2022-10-01T12:24:16.115Z,3.69
2022-10-01T12:27:02.386Z,4.03
2022-10-01T12:29:35.857Z,3.66
2022-10-01T12:32:17.158Z,4.12
2022-10-01T12:34:49.411Z,3.83
2022-10-01T12:37:26.007Z,4.42
2022-10-01T12:40:03.630Z,4.48
2022-10-01T12:42:50.541Z,4.43
2022-10-01T12:45:20.417Z,4.20
2022-10-01T12:48:06.396Z,4.10
2022-10-01T12:50:55.918Z,4.03
2022-10-01T12:53:28.183Z,4.53
2022-10-01T12:55:59.620Z,4.77
2022-10-01T12:58:35.679Z,4.66
2022-10-01T13:01:26.104Z,4.01
2022-10-01T13:04:05.159Z,4.06
2022-10-01T13:06:31.898Z,3.93
2022-10-01T13:09:05.708Z,4.30
2022-10-01T13:11:32.191Z,4.03
2022-10-01T13:14:00.946Z,3.80
2022-10-01T13:16:30.585Z,4.37
2022-10-01T13:19:04.954Z,4.27
2022-10-01T13:21:50.043Z,4.04
2022-10-01T13:24:35.747Z,4.54
2022-10-01T13:27:25.608Z,4.31
2022-10-01T13:30:03.082Z,4.09
2022-10-01T13:32:34.739Z,4.48
2022-10-01T13:35:21.459Z,4.27
2022-10-01T13:37:47.885Z,4.36
2022-10-01T13:40:22.826Z,3.67
2022-10-01T13:42:51.570Z,4.17
2022-10-01T13:45:30.449Z,4.17
2022-10-01T13:48:12.563Z,3.89
2022-10-01T13:50:40.101Z,4.55
2022-10-01T13:53:15.053Z,4.12
2022-10-01T13:55:43.800Z,4.44
2022-10-01T13:58:22.571Z,4.61
2022-10-01T14:00:50.780Z,3.86
2022-10-01T14:03:34.543Z,3.74
2022-10-01T14:06:03.323Z,3.80
2022-10-01T14:08:32.974Z,3.91
2022-10-01T14:11:34.399Z,4.55
2022-10-01T14:14:31.726Z,3.34
2022-10-01T14:16:59.666Z,3.49
2022-10-01T14:19:27.491Z,3.68
2022-10-01T14:22:03.099Z,3.68
2022-10-01T14:24:42.443Z,3.30
2022-10-01T14:27:18.911Z,3.59
2022-10-01T14:30:03.522Z,3.37
2022-10-01T14:32:30.010Z,3.50
2022-10-01T14:35:19.335Z,3.65
2022-10-01T14:37:46.512Z,3.42
2022-10-01T14:40:16.644Z,3.72
2022-10-01T14:42:43.278Z,3.62
2022-10-01T14:45:19.436Z,4.02
2022-10-01T14:47:48.835Z,3.90
2022-10-01T14:50:20.589Z,3.79
2022-10-01T14:52:51.128Z,3.96
2022-10-01T14:55:22.405Z,3.71
2022-10-01T14:57:51.724Z,3.18
2022-10-01T15:00:20.058Z,3.37
2022-10-01T15:02:48.829Z,3.38
2022-10-01T15:05:26.744Z,3.85
2022-10-01T15:07:53.856Z,3.40
2022-10-01T15:10:23.914Z,3.51
2022-10-01T15:12:52.540Z,3.23
2022-10-01T15:15:26.305Z,3.30
2022-10-01T15:17:53.125Z,3.41
2022-10-01T15:20:19.977Z,3.24
2022-10-01T15:22:49.168Z,3.61
2022-10-01T15:25:19.395Z,3.08
2022-10-01T15:27:46.080Z,3.15
2022-10-01T15:30:18.344Z,3.35
2022-10-01T15:32:46.983Z,3.07
2022-10-01T15:35:16.195Z,3.19
2022-10-01T15:37:45.710Z,3.36
2022-10-01T15:40:30.706Z,3.26
2022-10-01T15:43:21.999Z,3.40
2022-10-01T15:46:08.420Z,3.57
2022-10-01T15:48:35.010Z,3.74
2022-10-01T15:51:03.901Z,3.03
2022-10-01T15:53:32.493Z,4.08
2022-10-01T15:56:06.764Z,3.65
2022-10-01T15:58:41.858Z,2.84
2022-10-01T16:01:16.802Z,3.04
2022-10-01T16:04:11.451Z,2.84
2022-10-01T16:06:41.122Z,3.17
2022-10-01T16:09:19.192Z,3.08
2022-10-01T16:11:51.747Z,3.79
2022-10-01T16:14:24.471Z,3.40
2022-10-01T16:16:51.195Z,3.32
2022-10-01T16:19:20.780Z,3.15
2022-10-01T16:22:06.249Z,3.61
2022-10-01T16:24:41.492Z,3.36
2022-10-01T16:27:17.964Z,3.26
2022-10-01T16:29:53.007Z,3.43
2022-10-01T16:32:19.636Z,3.37
2022-10-01T16:34:46.122Z,3.44
2022-10-01T16:37:12.690Z,3.99
2022-10-01T16:39:39.225Z,3.83
2022-10-01T16:42:23.348Z,3.24
2022-10-01T16:44:51.202Z,3.54
2022-10-01T16:47:17.797Z,3.91
2022-10-01T16:49:46.998Z,3.24
2022-10-01T16:52:14.113Z,3.71
2022-10-01T16:54:40.688Z,3.67
2022-10-01T16:57:07.180Z,4.05
2022-10-01T16:59:34.134Z,4.03
2022-10-01T17:02:02.151Z,4.31
2022-10-01T17:04:34.101Z,3.59
2022-10-01T17:07:00.731Z,3.61
2022-10-01T17:09:27.238Z,3.85
2022-10-01T17:11:54.087Z,4.08
2022-10-01T17:14:21.326Z,4.49
2022-10-01T17:16:48.570Z,4.45
2022-10-01T17:19:15.243Z,4.07
2022-10-01T17:21:41.802Z,5.18
2022-10-01T17:24:10.861Z,5.16
2022-10-01T17:26:42.094Z,4.48
2022-10-01T17:29:09.877Z,3.67
2022-10-01T17:31:37.144Z,3.83
2022-10-01T17:34:04.559Z,3.99
2022-10-01T17:36:31.450Z,4.02
2022-10-01T17:38:58.058Z,3.87
2022-10-01T17:41:25.008Z,4.42
2022-10-01T17:43:51.645Z,4.34
2022-10-01T17:46:18.404Z,3.67
2022-10-01T17:48:46.869Z,4.33
2022-10-01T17:51:16.990Z,3.89
2022-10-01T17:53:43.609Z,4.24
2022-10-01T17:56:13.467Z,4.34
2022-10-01T17:58:45.044Z,4.15
2022-10-01T18:01:14.155Z,4.14
2022-10-01T18:03:40.999Z,4.40
2022-10-01T18:06:11.707Z,4.19
2022-10-01T18:08:54.228Z,4.27
2022-10-01T18:11:21.525Z,4.32
2022-10-01T18:13:48.036Z,4.22
2022-10-01T18:16:18.868Z,4.29
2022-10-01T18:21:32.819Z,4.20
2022-10-01T18:24:03.434Z,5.02
2022-10-01T18:26:30.907Z,4.72
2022-10-01T18:28:57.443Z,4.53
2022-10-01T18:31:28.356Z,4.73
2022-10-01T18:34:02.490Z,4.21
2022-10-01T18:36:38.433Z,4.86
2022-10-01T18:39:19.312Z,5.51
2022-10-01T18:41:45.981Z,5.15
2022-10-01T18:44:19.359Z,5.80
2022-10-01T18:46:54.866Z,5.60
2022-10-01T18:49:40.270Z,5.83
2022-10-01T18:52:15.317Z,6.00
2022-10-01T18:55:00.499Z,5.33
2022-10-01T18:57:45.880Z,4.97
2022-10-01T19:00:23.679Z,5.23
2022-10-01T19:03:04.932Z,5.33
2022-10-01T19:05:50.044Z,5.39
2022-10-01T19:08:20.854Z,4.99
2022-10-01T19:11:05.949Z,5.34
2022-10-01T19:13:49.031Z,5.51
2022-10-01T19:16:43.063Z,6.91
2022-10-01T19:19:15.806Z,6.64
2022-10-01T19:22:04.262Z,6.75
2022-10-01T19:24:54.535Z,6.72
2022-10-01T19:27:46.020Z,6.48
2022-10-01T19:30:16.987Z,6.94
2022-10-01T19:32:57.349Z,6.81
2022-10-01T19:35:44.360Z,7.19
2022-10-01T19:38:10.843Z,6.99
2022-10-01T19:40:40.416Z,6.86
2022-10-01T19:43:15.570Z,6.90
2022-10-01T19:45:44.947Z,5.87
2022-10-01T19:48:17.923Z,5.69
2022-10-01T19:50:47.799Z,5.93
2022-10-01T19:53:22.283Z,6.07
2022-10-01T19:55:52.347Z,6.25
2022-10-01T19:58:20.214Z,6.38
2022-10-01T20:00:50.681Z,6.31
2022-10-01T20:03:34.303Z,6.05
2022-10-01T20:06:10.096Z,5.66
2022-10-01T20:08:52.899Z,6.36
2022-10-01T20:11:19.341Z,5.87
2022-10-01T20:13:55.066Z,6.14
2022-10-01T20:16:40.865Z,5.52
2022-10-01T20:19:19.919Z,5.58
2022-10-01T20:22:01.676Z,5.59
2022-10-01T20:24:28.963Z,5.49
2022-10-01T20:27:04.103Z,5.05
2022-10-01T20:29:53.348Z,5.40
2022-10-01T20:32:25.831Z,5.26
2022-10-01T20:35:09.230Z,4.97
2022-10-01T20:37:35.651Z,5.08
2022-10-01T20:40:24.979Z,4.98
2022-10-01T20:43:05.112Z,5.30
2022-10-01T20:45:34.366Z,5.62
2022-10-01T20:48:15.894Z,5.88
2022-10-01T20:50:45.681Z,5.03
2022-10-01T20:53:15.014Z,5.11
2022-10-01T20:55:45.396Z,5.00
2022-10-01T20:58:24.652Z,4.57
2022-10-01T21:00:56.318Z,4.82
2022-10-01T21:03:31.849Z,4.85
2022-10-01T21:06:03.591Z,4.78
2022-10-01T21:08:38.152Z,4.48
2022-10-01T21:11:10.295Z,4.31
2022-10-01T21:13:48.286Z,4.33
2022-10-01T21:16:39.496Z,4.71
2022-10-01T21:19:32.767Z,4.77
2022-10-01T21:22:12.828Z,4.49
2022-10-01T21:24:40.380Z,4.77
2022-10-01T21:27:25.542Z,4.77
2022-10-01T21:30:12.680Z,5.01
2022-10-01T21:33:03.823Z,4.70
2022-10-01T21:35:33.012Z,4.86
2022-10-01T21:37:59.539Z,4.96
2022-10-01T21:40:32.890Z,4.68
2022-10-01T21:42:59.467Z,4.77
2022-10-01T21:45:36.155Z,4.83
2022-10-01T21:48:03.281Z,4.47
2022-10-01T21:50:38.625Z,4.67
2022-10-01T21:53:11.468Z,4.65
2022-10-01T21:55:37.943Z,4.62
2022-10-01T21:58:10.682Z,4.89
2022-10-01T22:00:37.294Z,4.92
2022-10-01T22:03:03.872Z,4.75
2022-10-01T22:05:50.376Z,4.94
2022-10-01T22:08:19.964Z,5.18
2022-10-01T22:10:48.617Z,4.83
2022-10-01T22:13:24.515Z,4.43
2022-10-01T22:15:54.657Z,4.69
2022-10-01T22:18:41.469Z,4.56
2022-10-01T22:21:10.856Z,4.55
2022-10-01T22:23:41.078Z,4.62
2022-10-01T22:26:13.237Z,4.67
2022-10-01T22:28:42.324Z,4.54
2022-10-01T22:31:15.228Z,4.96
2022-10-01T22:33:47.607Z,4.45
2022-10-01T22:36:37.861Z,4.60
2022-10-01T22:39:28.993Z,4.99
2022-10-01T22:42:14.199Z,4.52
2022-10-01T22:44:41.129Z,4.87
2022-10-01T22:47:17.786Z,4.69
2022-10-01T22:49:44.235Z,4.81
2022-10-01T22:52:32.764Z,4.92
2022-10-01T22:55:18.124Z,4.94
2022-10-01T22:57:44.871Z,4.97
2022-10-01T23:00:13.751Z,4.23
2022-10-01T23:02:49.638Z,4.02
2022-10-01T23:05:33.249Z,4.12
2022-10-01T23:08:02.739Z,4.44
2022-10-01T23:10:39.641Z,4.03
2022-10-01T23:13:19.714Z,3.95
2022-10-01T23:16:07.884Z,3.97
2022-10-01T23:18:34.884Z,3.99
2022-10-01T23:21:01.319Z,4.28
2022-10-01T23:23:32.184Z,3.81
2022-10-01T23:26:08.791Z,3.85
2022-10-01T23:29:01.341Z,4.39
2022-10-01T23:31:46.514Z,4.59
2022-10-01T23:34:25.470Z,3.02
2022-10-01T23:37:07.243Z,2.43
2022-10-01T23:39:50.492Z,1.79
2022-10-01T23:42:20.331Z,2.78
2022-10-01T23:44:50.104Z,2.78
2022-10-01T23:47:22.244Z,2.00
2022-10-01T23:49:56.297Z,1.91
2022-10-01T23:52:39.137Z,1.94
2022-10-01T23:55:37.656Z,1.65
2022-10-01T23:58:10.135Z,1.24
